Time;durP1;ratioP1;P1;durP2;ratioP2;P2;SDS_P1;SDS_P2;PMS_P1;PMS_P2;Temp;Humidity;BMP_temperature;BMP_pressure;BME280_temperature;BME280_humidity;BME280_pressure;Samples;Min_cycle;Max_cycle;Signal;HPM_P1;HPM_P2
2021/01/20 00:01:33;;;;;;;67.88;33.90;;;-1.90;99.90;;;;;;6218339;23;20019;-80
2021/01/20 00:04:14;;;;;;;72.63;31.63;;;-2.20;99.90;;;;;;6246329;23;20342;-81
2021/01/20 00:06:39;;;;;;;63.15;33.28;;;-1.70;99.90;;;;;;6245915;23;20000;-80
2021/01/20 00:09:05;;;;;;;64.20;34.10;;;-2.20;99.90;;;;;;6245607;23;20083;-80
2021/01/20 00:11:32;;;;;;;57.65;32.15;;;-1.70;99.90;;;;;;6216472;23;20404;-83
2021/01/20 00:13:58;;;;;;;61.20;32.13;;;-1.60;99.90;;;;;;6244823;23;20004;-84
2021/01/20 00:16:33;;;;;;;66.05;34.15;;;-1.30;99.90;;;;;;6243909;23;20464;-83
2021/01/20 00:18:58;;;;;;;60.80;31.75;;;-1.30;99.90;;;;;;6220602;23;20011;-86
2021/01/20 00:21:53;;;;;;;99.32;49.35;;;-1.30;99.90;;;;;;6220897;23;20007;-87
2021/01/20 00:24:31;;;;;;;82.90;34.15;;;-1.20;99.90;;;;;;6220733;23;20317;-87
2021/01/20 00:26:56;;;;;;;97.78;45.55;;;-1.60;99.90;;;;;;6218383;23;20063;-85
2021/01/20 00:29:22;;;;;;;78.97;39.53;;;-1.50;99.90;;;;;;6244752;23;20100;-82
2021/01/20 00:31:48;;;;;;;71.10;35.30;;;-1.40;99.90;;;;;;6218391;23;20385;-82
2021/01/20 00:34:14;;;;;;;57.40;34.25;;;-1.30;99.90;;;;;;6218591;23;20020;-82
2021/01/20 00:36:39;;;;;;;60.90;32.63;;;-1.30;99.90;;;;;;6244994;23;19996;-83
2021/01/20 00:39:06;;;;;;;58.42;33.50;;;-1.20;99.90;;;;;;6245795;23;20584;-84
2021/01/20 00:41:38;;;;;;;59.67;33.65;;;-1.30;99.90;;;;;;6217739;23;20014;-82
2021/01/20 00:44:04;;;;;;;67.50;36.28;;;-1.30;99.90;;;;;;6244957;23;20012;-83
2021/01/20 00:46:30;;;;;;;58.45;33.10;;;-1.30;99.90;;;;;;6218249;23;20012;-82
2021/01/20 00:48:56;;;;;;;61.22;34.65;;;-1.40;99.90;;;;;;6218768;23;20099;-82
2021/01/20 00:51:22;;;;;;;57.33;32.53;;;-1.50;99.90;;;;;;6218598;23;20307;-84
2021/01/20 00:53:48;;;;;;;61.40;32.40;;;-1.30;99.90;;;;;;6244476;23;20008;-84
2021/01/20 00:56:13;;;;;;;63.35;32.50;;;-1.20;99.90;;;;;;6218247;23;20008;-82
2021/01/20 00:58:39;;;;;;;62.75;32.80;;;-1.30;99.90;;;;;;6217535;23;20015;-81
2021/01/20 01:01:05;;;;;;;73.40;38.38;;;-1.40;99.90;;;;;;6244846;23;20440;-80
2021/01/20 01:03:31;;;;;;;69.68;37.78;;;-1.50;99.90;;;;;;6244318;23;20016;-81
2021/01/20 01:05:56;;;;;;;67.68;37.53;;;-1.90;99.90;;;;;;6245200;23;20010;-81
2021/01/20 01:08:25;;;;;;;71.68;34.05;;;-1.50;99.90;;;;;;6218289;23;20015;-82
2021/01/20 01:10:52;;;;;;;70.25;35.25;;;-1.70;99.90;;;;;;6245126;23;19996;-83
2021/01/20 01:13:19;;;;;;;57.67;34.10;;;-1.60;99.90;;;;;;6218035;23;20012;-83
2021/01/20 01:15:45;;;;;;;60.65;33.45;;;-1.40;99.90;;;;;;6218563;23;20028;-81
2021/01/20 01:18:10;;;;;;;59.85;34.63;;;-1.40;99.90;;;;;;6218827;23;20022;-81
2021/01/20 01:20:36;;;;;;;65.35;36.15;;;-1.50;99.90;;;;;;6217054;23;20008;-81
2021/01/20 01:23:02;;;;;;;74.65;37.72;;;-1.40;99.90;;;;;;6216410;23;20369;-81
2021/01/20 01:25:28;;;;;;;69.88;37.40;;;-1.80;99.90;;;;;;6243534;23;20004;-81
2021/01/20 01:27:54;;;;;;;65.40;36.67;;;-1.60;99.90;;;;;;6216699;23;20456;-81
2021/01/20 01:30:20;;;;;;;71.47;38.05;;;-1.60;99.90;;;;;;6217136;23;20004;-81
2021/01/20 01:32:45;;;;;;;68.03;36.83;;;-1.70;99.90;;;;;;6243916;23;20055;-81
2021/01/20 01:35:12;;;;;;;72.10;39.60;;;-1.70;99.90;;;;;;6243479;23;20414;-82
2021/01/20 01:37:38;;;;;;;72.65;40.70;;;-1.70;99.90;;;;;;6243256;23;20014;-81
2021/01/20 01:40:05;;;;;;;78.20;38.92;;;-1.60;99.90;;;;;;6243683;23;20000;-81
2021/01/20 01:42:48;;;;;;;79.38;41.85;;;-1.60;99.90;;;;;;6243052;23;20093;-83
2021/01/20 01:49:04;;;;;;;69.28;38.65;;;-1.80;99.90;;;;;;6200378;23;20039;-80
2021/01/20 01:51:30;;;;;;;70.47;38.33;;;-1.70;99.90;;;;;;6243876;23;20031;-81
2021/01/20 01:53:56;;;;;;;72.13;37.75;;;-1.60;99.90;;;;;;6216542;23;20311;-81
2021/01/20 01:56:28;;;;;;;64.70;38.20;;;-1.70;99.90;;;;;;6211287;23;20016;-81
2021/01/20 01:59:06;;;;;;;72.38;40.08;;;-1.70;99.90;;;;;;6217273;23;20094;-83
2021/01/20 02:01:38;;;;;;;67.13;38.25;;;-1.90;99.90;;;;;;6218253;23;20004;-83
2021/01/20 02:04:04;;;;;;;79.70;40.05;;;-1.90;99.90;;;;;;6245036;23;20012;-81
2021/01/20 02:06:30;;;;;;;67.28;36.88;;;-2.00;99.90;;;;;;6218749;23;20000;-80
2021/01/20 02:08:56;;;;;;;72.35;39.13;;;-1.80;99.90;;;;;;6217426;23;20000;-81
2021/01/20 02:11:41;;;;;;;77.00;42.17;;;-1.80;99.90;;;;;;6217053;23;20030;-82
2021/01/20 02:14:34;;;;;;;80.43;42.03;;;-1.80;99.90;;;;;;6245123;23;20031;-82
2021/01/20 02:17:28;;;;;;;84.55;41.35;;;-2.20;99.90;;;;;;6244733;23;20023;-82
2021/01/20 02:20:31;;;;;;;89.85;44.38;;;-2.20;99.90;;;;;;6245113;23;20441;-83
2021/01/20 02:23:02;;;;;;;71.95;39.05;;;-1.90;99.90;;;;;;6245210;23;20115;-84
2021/01/20 02:25:27;;;;;;;;;;;-2.00;99.90;;;;;;6219739;23;20008;-82
2021/01/20 02:28:08;;;;;;;69.30;38.08;;;-2.00;99.90;;;;;;6245226;23;19961;-83
2021/01/20 02:30:37;;;;;;;76.10;39.15;;;-1.90;99.90;;;;;;6218639;23;20007;-83
2021/01/20 02:33:04;;;;;;;80.82;40.03;;;-2.00;99.90;;;;;;6218827;23;20018;-83
2021/01/20 02:35:31;;;;;;;82.75;39.83;;;-2.00;99.90;;;;;;6218533;23;20015;-83
2021/01/20 02:37:58;;;;;;;83.93;40.33;;;-2.10;99.90;;;;;;6245308;23;20381;-82
2021/01/20 02:40:24;;;;;;;69.07;38.53;;;-2.10;99.90;;;;;;6218555;23;20000;-84
2021/01/20 02:42:50;;;;;;;67.30;37.10;;;-2.10;99.90;;;;;;6245260;23;20007;-82
2021/01/20 02:45:17;;;;;;;70.82;37.85;;;-2.10;99.90;;;;;;6217795;23;20422;-81
2021/01/20 02:47:45;;;;;;;77.10;39.75;;;-2.00;99.90;;;;;;6218332;23;20007;-83
2021/01/20 02:50:12;;;;;;;66.32;37.25;;;-2.40;99.90;;;;;;6244636;23;20011;-81
2021/01/20 02:53:07;;;;;;;77.40;39.53;;;-2.20;99.90;;;;;;6244897;23;20329;-83
2021/01/20 02:55:33;;;;;;;77.82;37.45;;;-2.20;99.90;;;;;;6218131;23;20382;-82
2021/01/20 02:58:01;;;;;;;73.00;38.17;;;-2.10;99.90;;;;;;6244905;23;20004;-82
2021/01/20 03:00:30;;;;;;;69.60;35.53;;;-2.10;99.90;;;;;;6217753;23;20032;-83
2021/01/20 03:02:58;;;;;;;62.92;35.15;;;-2.10;99.90;;;;;;6245681;23;20009;-82
2021/01/20 03:05:26;;;;;;;65.10;32.55;;;-2.30;99.90;;;;;;6244288;23;20004;-80
2021/01/20 03:07:52;;;;;;;69.47;36.13;;;-2.50;99.90;;;;;;6217751;23;20004;-82
2021/01/20 03:10:19;;;;;;;67.45;32.40;;;-2.50;99.90;;;;;;6244090;23;20058;-81
2021/01/20 03:12:48;;;;;;;60.53;32.25;;;-2.40;99.90;;;;;;6245405;23;20002;-81
2021/01/20 03:15:39;;;;;;;67.05;33.25;;;-2.50;99.90;;;;;;6217917;23;20120;-80
2021/01/20 03:18:06;;;;;;;50.42;28.83;;;-2.60;99.90;;;;;;6244716;23;20031;-81
2021/01/20 03:20:32;;;;;;;57.40;29.60;;;-2.40;99.90;;;;;;6244183;23;20004;-81
2021/01/20 03:22:58;;;;;;;65.80;31.90;;;-2.40;99.90;;;;;;6218059;23;20142;-81
2021/01/20 03:25:24;;;;;;;55.80;29.92;;;-2.70;99.90;;;;;;6244359;23;20006;-81
2021/01/20 03:27:50;;;;;;;60.42;29.08;;;-2.70;99.90;;;;;;6245165;23;20050;-81
2021/01/20 03:30:17;;;;;;;52.08;28.00;;;-2.50;99.90;;;;;;6217260;23;20397;-80
2021/01/20 03:32:43;;;;;;;44.53;26.63;;;-2.50;99.90;;;;;;6244893;23;20369;-83
2021/01/20 03:35:10;;;;;;;51.58;25.85;;;-2.40;99.90;;;;;;6243858;23;20426;-81
2021/01/20 03:37:36;;;;;;;43.30;23.00;;;-2.40;99.90;;;;;;6217337;23;20008;-80
2021/01/20 03:40:03;;;;;;;41.95;23.30;;;-2.30;99.90;;;;;;6243844;23;20057;-81
2021/01/20 03:42:29;;;;;;;37.13;21.83;;;-2.30;99.90;;;;;;6244355;23;20028;-80
2021/01/20 03:44:55;;;;;;;37.03;20.15;;;-2.40;99.90;;;;;;6243893;23;19996;-80
2021/01/20 03:47:21;;;;;;;47.05;21.40;;;-2.50;99.90;;;;;;6218293;23;20008;-79
2021/01/20 03:49:47;;;;;;;43.20;22.05;;;-2.70;99.90;;;;;;6246636;23;20441;-81
2021/01/20 03:52:12;;;;;;;34.88;20.33;;;-2.80;99.90;;;;;;6246654;23;20480;-82
2021/01/20 03:54:38;;;;;;;37.42;21.00;;;-2.70;99.90;;;;;;6246259;23;20022;-80
2021/01/20 03:57:04;;;;;;;38.05;20.10;;;-2.60;99.90;;;;;;6246372;23;20004;-80
2021/01/20 03:59:33;;;;;;;38.03;19.60;;;-2.80;99.90;;;;;;6245892;23;20071;-81
2021/01/20 04:02:05;;;;;;;36.50;20.73;;;-2.70;99.90;;;;;;6246181;23;20000;-80
2021/01/20 04:04:32;;;;;;;33.25;22.15;;;-2.80;99.90;;;;;;6246671;23;20014;-84
2021/01/20 04:07:02;;;;;;;39.35;22.70;;;-2.90;99.90;;;;;;6248132;23;20000;-82
2021/01/20 04:09:28;;;;;;;36.28;21.40;;;-2.70;99.90;;;;;;6219915;23;20058;-81
2021/01/20 04:11:54;;;;;;;39.20;21.50;;;-2.90;99.90;;;;;;6246270;23;20000;-82
2021/01/20 04:14:20;;;;;;;45.15;22.40;;;-2.80;99.90;;;;;;6245601;23;20004;-82
2021/01/20 04:16:46;;;;;;;34.53;20.35;;;-2.80;99.90;;;;;;6246179;23;20048;-81
2021/01/20 04:19:12;;;;;;;44.00;23.85;;;-2.90;99.90;;;;;;6246183;23;20016;-82
2021/01/20 04:21:38;;;;;;;43.05;22.67;;;-2.90;99.90;;;;;;6245323;23;20353;-83
2021/01/20 04:24:04;;;;;;;43.65;23.25;;;-3.00;99.90;;;;;;6219587;23;20004;-82
2021/01/20 04:26:30;;;;;;;44.78;22.60;;;-2.80;99.90;;;;;;6245588;23;20463;-82
2021/01/20 04:28:55;;;;;;;42.13;24.90;;;-2.70;99.90;;;;;;6245763;23;19996;-80
2021/01/20 04:31:21;;;;;;;39.70;24.45;;;-2.80;99.90;;;;;;6245214;23;20389;-81
2021/01/20 04:33:47;;;;;;;44.83;24.63;;;-2.70;99.90;;;;;;6245739;23;20020;-81
2021/01/20 04:36:12;;;;;;;42.33;25.00;;;-2.60;99.90;;;;;;6245343;23;20371;-81
2021/01/20 04:38:38;;;;;;;44.28;23.50;;;-2.70;99.90;;;;;;6245526;23;20327;-81
2021/01/20 04:41:04;;;;;;;45.88;24.73;;;-3.00;99.90;;;;;;6245423;23;20322;-81
2021/01/20 04:43:30;;;;;;;48.70;24.83;;;-3.00;99.90;;;;;;6245454;23;20008;-81
2021/01/20 04:45:55;;;;;;;46.15;24.48;;;-2.80;99.90;;;;;;6217894;23;19996;-80
2021/01/20 04:48:31;;;;;;;46.60;23.98;;;-2.70;99.90;;;;;;6218641;23;20066;-81
2021/01/20 04:50:57;;;;;;;44.63;24.30;;;-2.70;99.90;;;;;;6244919;23;20003;-80
2021/01/20 04:53:24;;;;;;;45.38;24.50;;;-2.70;99.90;;;;;;6218056;23;20031;-79
2021/01/20 04:55:52;;;;;;;45.45;25.40;;;-2.80;99.90;;;;;;6244903;23;20001;-79
2021/01/20 04:58:19;;;;;;;40.22;23.90;;;-2.70;99.90;;;;;;6245371;23;20008;-80
2021/01/20 05:00:45;;;;;;;43.58;25.25;;;-2.70;99.90;;;;;;6245183;23;20054;-81
2021/01/20 05:03:11;;;;;;;46.72;25.73;;;-2.90;99.90;;;;;;6219123;23;20038;-84
2021/01/20 05:05:43;;;;;;;45.08;23.92;;;-2.80;99.90;;;;;;6246463;23;20000;-82
2021/01/20 05:08:08;;;;;;;39.45;23.02;;;-2.70;99.90;;;;;;6219636;23;20417;-88
2021/01/20 05:10:34;;;;;;;39.30;24.10;;;-2.70;99.90;;;;;;6246071;23;20027;-83
2021/01/20 05:13:03;;;;;;;43.22;23.52;;;-2.60;99.90;;;;;;6247103;23;20118;-87
2021/01/20 05:15:35;;;;;;;44.03;25.52;;;-2.50;99.90;;;;;;6246955;23;20473;-83
2021/01/20 05:18:05;;;;;;;47.20;24.75;;;-2.60;99.90;;;;;;6220500;23;20028;-81
2021/01/20 05:20:31;;;;;;;47.67;26.63;;;-2.60;99.90;;;;;;6246518;23;19996;-83
2021/01/20 05:23:02;;;;;;;44.42;24.30;;;-2.60;99.90;;;;;;6246544;23;20066;-84
2021/01/20 05:25:38;;;;;;;49.20;25.13;;;-2.60;99.90;;;;;;6219951;23;20323;-86
2021/01/20 05:28:26;;;;;;;47.75;26.10;;;-2.60;99.90;;;;;;6219714;23;19997;-81
2021/01/20 05:31:01;;;;;;;45.47;25.63;;;-2.60;99.90;;;;;;6247107;23;20067;-83
2021/01/20 05:33:36;;;;;;;51.55;28.90;;;-2.90;99.90;;;;;;6219947;23;20016;-83
2021/01/20 05:36:03;;;;;;;48.08;26.50;;;-2.90;99.90;;;;;;6218467;23;20004;-82
2021/01/20 05:38:38;;;;;;;50.10;27.50;;;-2.90;99.90;;;;;;6245633;23;20019;-83
2021/01/20 05:41:14;;;;;;;46.60;27.98;;;-2.70;99.90;;;;;;6220456;23;20048;-84
2021/01/20 05:43:40;;;;;;;48.88;27.58;;;-2.80;99.90;;;;;;6246515;23;20334;-84
2021/01/20 05:46:05;;;;;;;56.05;25.38;;;-2.90;99.90;;;;;;6246918;23;20426;-83
2021/01/20 05:48:32;;;;;;;50.63;26.77;;;-2.90;99.90;;;;;;6246128;23;20008;-80
2021/01/20 05:50:58;;;;;;;45.83;25.70;;;-2.80;99.90;;;;;;6245573;23;20366;-81
2021/01/20 05:53:24;;;;;;;50.88;27.23;;;-2.80;99.90;;;;;;6245233;23;20077;-82
2021/01/20 05:56:04;;;;;;;59.90;28.45;;;-2.80;99.90;;;;;;6219290;23;20146;-85
2021/01/20 05:58:39;;;;;;;53.40;26.60;;;-2.70;99.90;;;;;;6245407;23;20495;-81
2021/01/20 06:01:10;;;;;;;53.38;27.80;;;-2.80;99.90;;;;;;6245889;23;20000;-80
2021/01/20 06:03:37;;;;;;;47.00;25.33;;;-2.70;99.90;;;;;;6246249;23;20012;-82
2021/01/20 06:06:05;;;;;;;52.80;25.40;;;-2.80;99.90;;;;;;6245685;23;20448;-81
2021/01/20 06:08:35;;;;;;;44.15;25.90;;;-2.80;99.90;;;;;;6247205;23;20004;-81
2021/01/20 06:11:05;;;;;;;52.10;27.25;;;-2.70;99.90;;;;;;6244419;23;19996;-81
2021/01/20 06:13:32;;;;;;;44.30;25.02;;;-2.60;99.90;;;;;;6245235;23;20367;-80
2021/01/20 06:16:00;;;;;;;44.10;24.48;;;-2.60;99.90;;;;;;6217851;23;20066;-82
2021/01/20 06:18:36;;;;;;;47.50;24.60;;;-2.70;99.90;;;;;;6245415;23;20430;-84
2021/01/20 06:21:02;;;;;;;45.42;23.80;;;-3.10;99.90;;;;;;6244953;23;20000;-82
2021/01/20 06:23:33;;;;;;;37.75;21.40;;;-2.90;99.90;;;;;;6219897;23;20022;-84
2021/01/20 06:26:25;;;;;;;142.65;68.07;;;-1.80;99.90;;;;;;6248192;23;20052;-85
2021/01/20 06:29:08;;;;;;;100.53;48.92;;;-1.90;99.90;;;;;;6219097;23;20400;-82
2021/01/20 06:31:41;;;;;;;50.22;28.55;;;-2.00;99.90;;;;;;6244600;23;20329;-81
2021/01/20 06:34:07;;;;;;;54.63;26.50;;;-2.30;99.90;;;;;;6217178;23;20027;-81
2021/01/20 06:36:35;;;;;;;38.20;24.55;;;-2.30;99.90;;;;;;6216825;23;20008;-84
2021/01/20 06:39:21;;;;;;;39.03;24.38;;;-2.20;99.90;;;;;;6245645;23;20349;-84
2021/01/20 06:41:47;;;;;;;41.85;24.13;;;-2.50;99.90;;;;;;6244431;23;20069;-81
2021/01/20 06:44:14;;;;;;;47.22;23.70;;;-2.20;99.90;;;;;;6244455;23;20338;-82
2021/01/20 06:47:04;;;;;;;39.38;23.45;;;-2.30;99.90;;;;;;6245102;23;20326;-81
2021/01/20 06:49:35;;;;;;;;;;;-2.40;99.90;;;;;;6245702;23;20016;-82
2021/01/20 06:52:14;;;;;;;43.53;23.40;;;-2.40;99.90;;;;;;6244710;23;19903;-84
2021/01/20 06:54:45;;;;;;;39.75;24.02;;;-2.20;99.90;;;;;;6218354;23;20008;-82
2021/01/20 06:57:30;;;;;;;40.53;24.67;;;-2.10;99.90;;;;;;6244563;23;19996;-83
2021/01/20 07:00:08;;;;;;;55.95;25.42;;;-2.00;99.90;;;;;;6217742;23;20007;-81
2021/01/20 07:02:56;;;;;;;101.88;48.50;;;-1.90;99.90;;;;;;6245925;23;20074;-86
2021/01/20 07:05:36;;;;;;;89.93;42.25;;;-1.10;99.90;;;;;;6247072;23;20010;-82
2021/01/20 07:08:04;;;;;;;73.82;35.72;;;-0.90;99.90;;;;;;6217879;23;20012;-83
2021/01/20 07:10:51;;;;;;;50.67;28.85;;;-1.20;99.90;;;;;;6218505;23;20004;-82
2021/01/20 07:13:30;;;;;;;50.47;27.25;;;-1.50;99.90;;;;;;6244753;23;20004;-83
2021/01/20 07:16:35;;;;;;;52.40;26.50;;;-1.60;99.90;;;;;;6245004;23;20026;-83
2021/01/20 07:19:01;;;;;;;50.50;27.67;;;-1.60;99.90;;;;;;6216684;23;20410;-84
2021/01/20 07:21:26;;;;;;;58.25;29.23;;;-1.60;99.90;;;;;;6244924;23;20322;-85
2021/01/20 07:23:59;;;;;;;49.95;30.58;;;-1.50;99.90;;;;;;6245818;23;20422;-82
2021/01/20 07:36:13;;;;;;;55.85;30.80;;;-1.90;99.90;;;;;;6193286;23;20008;-83
2021/01/20 07:39:00;;;;;;;65.90;31.70;;;-2.10;99.90;;;;;;6215826;23;20013;-85
2021/01/20 07:41:26;;;;;;;64.22;33.92;;;-1.70;99.90;;;;;;6216047;23;19997;-82
2021/01/20 07:46:27;;;;;;;66.93;34.17;;;-1.10;99.90;;;;;;6180580;22;20021;-83
2021/01/20 07:48:52;;;;;;;72.65;35.60;;;-1.00;99.90;;;;;;6185726;23;20001;-83
2021/01/20 07:51:20;;;;;;;73.80;34.58;;;-0.80;99.90;;;;;;6186557;23;20080;-84
2021/01/20 07:54:02;;;;;;;64.85;33.65;;;-0.50;99.90;;;;;;6186239;23;19997;-83
2021/01/20 07:56:29;;;;;;;64.00;34.47;;;-1.10;99.90;;;;;;6159429;23;20005;-83
2021/01/20 07:58:57;;;;;;;54.13;33.40;;;-0.30;99.90;;;;;;6185490;23;20013;-82
2021/01/20 08:01:48;;;;;;;56.25;32.17;;;-0.10;99.90;;;;;;6186236;23;20419;-82
2021/01/20 08:04:21;;;;;;;59.60;33.00;;;0.20;99.90;;;;;;6185701;23;19997;-82
2021/01/20 08:07:22;;;;;;;61.97;33.17;;;0.40;99.90;;;;;;6159800;23;20008;-81
2021/01/20 08:09:48;;;;;;;65.07;34.25;;;0.30;99.90;;;;;;6185468;23;20016;-81
2021/01/20 08:12:16;;;;;;;62.63;34.45;;;0.10;99.90;;;;;;6159676;23;20001;-81
2021/01/20 08:14:43;;;;;;;58.47;33.97;;;-0.10;99.90;;;;;;6186404;23;20331;-80
2021/01/20 08:17:11;;;;;;;66.10;34.78;;;0.20;99.90;;;;;;6185628;23;20009;-81
2021/01/20 08:19:37;;;;;;;66.35;35.05;;;0.70;99.90;;;;;;6160440;23;20020;-82
2021/01/20 08:22:06;;;;;;;67.53;36.03;;;1.00;99.60;;;;;;6160414;23;20304;-82
2021/01/20 08:24:33;;;;;;;64.10;36.25;;;1.20;98.00;;;;;;6159796;23;20009;-82
2021/01/20 08:27:14;;;;;;;69.45;36.65;;;0.90;98.30;;;;;;6157323;23;20001;-84
2021/01/20 08:29:51;;;;;;;63.55;34.20;;;0.80;98.50;;;;;;6158211;23;20005;-82
2021/01/20 08:32:18;;;;;;;66.82;35.50;;;0.30;99.90;;;;;;6157584;23;20379;-82
2021/01/20 08:34:50;;;;;;;68.65;36.88;;;0.20;99.90;;;;;;6184846;23;20005;-83
2021/01/20 08:37:18;;;;;;;70.00;36.13;;;0.40;99.90;;;;;;6158871;23;20322;-83
2021/01/20 08:39:56;;;;;;;63.20;35.58;;;0.60;99.90;;;;;;6159589;23;20009;-84
2021/01/20 08:42:32;;;;;;;63.05;35.70;;;0.70;99.50;;;;;;6159840;23;20012;-84
2021/01/20 08:45:10;;;;;;;70.95;36.30;;;1.50;97.30;;;;;;6186905;23;20080;-83
2021/01/20 08:47:55;;;;;;;60.20;36.20;;;1.90;94.80;;;;;;6158664;23;20013;-82
2021/01/20 08:50:20;;;;;;;57.47;34.70;;;1.90;94.50;;;;;;6185105;23;20011;-81
2021/01/20 08:52:49;;;;;;;63.80;36.55;;;2.30;93.50;;;;;;6185657;23;20068;-82
2021/01/20 08:55:22;;;;;;;64.68;35.00;;;2.30;93.20;;;;;;6158557;23;20012;-84
2021/01/20 08:58:08;;;;;;;67.30;37.20;;;2.60;91.60;;;;;;6183987;23;20019;-81
2021/01/20 09:00:44;;;;;;;67.03;36.25;;;2.80;91.70;;;;;;6183977;23;20411;-86
2021/01/20 09:03:12;;;;;;;64.88;37.75;;;3.10;90.50;;;;;;6159228;23;20011;-83
2021/01/20 09:05:37;;;;;;;64.30;37.38;;;2.80;89.80;;;;;;6185224;23;20064;-83
2021/01/20 09:08:03;;;;;;;68.43;38.20;;;3.30;89.70;;;;;;6186054;23;20001;-83
2021/01/20 09:10:32;;;;;;;64.97;38.88;;;3.60;86.20;;;;;;6160178;23;20001;-85
2021/01/20 09:12:59;;;;;;;65.88;39.45;;;3.70;85.10;;;;;;6186454;23;20005;-84
2021/01/20 09:15:25;;;;;;;66.80;38.33;;;3.90;83.50;;;;;;6186435;23;20339;-81
2021/01/20 09:17:51;;;;;;;66.93;39.83;;;4.00;82.00;;;;;;6185091;23;20009;-81
2021/01/20 09:20:37;;;;;;;62.53;37.75;;;4.10;81.30;;;;;;6158847;23;20035;-87
2021/01/20 09:23:04;;;;;;;71.60;37.92;;;3.50;80.80;;;;;;6184645;23;20322;-82
2021/01/20 09:25:30;;;;;;;63.88;35.75;;;3.10;82.70;;;;;;6158192;23;20009;-81
2021/01/20 09:27:56;;;;;;;62.97;37.05;;;3.30;84.00;;;;;;6158307;23;20092;-83
2021/01/20 09:30:25;;;;;;;66.90;39.10;;;3.90;82.80;;;;;;6157837;23;20048;-82
2021/01/20 09:32:54;;;;;;;69.68;41.65;;;4.40;80.40;;;;;;6184627;23;20001;-84
2021/01/20 09:35:20;;;;;;;68.63;39.88;;;4.70;77.90;;;;;;6182169;23;20327;-80
2021/01/20 09:37:47;;;;;;;67.68;38.75;;;4.70;75.80;;;;;;6184305;23;20116;-82
2021/01/20 09:40:21;;;;;;;68.63;38.28;;;5.00;75.80;;;;;;6157345;23;20045;-83
2021/01/20 09:42:48;;;;;;;74.82;41.28;;;5.10;74.10;;;;;;6156727;23;20055;-82
2021/01/20 09:45:16;;;;;;;63.33;36.72;;;5.30;72.50;;;;;;6155556;23;20477;-78
2021/01/20 09:47:43;;;;;;;73.70;39.35;;;5.40;71.70;;;;;;6184044;23;20017;-81
2021/01/20 09:50:11;;;;;;;64.20;40.00;;;5.60;71.00;;;;;;6184831;23;20009;-83
2021/01/20 09:52:44;;;;;;;63.88;40.13;;;5.00;71.30;;;;;;6158256;23;19997;-83
2021/01/20 09:55:14;;;;;;;67.03;39.90;;;4.70;72.20;;;;;;6157229;23;20012;-82
2021/01/20 09:58:11;;;;;;;71.10;40.47;;;5.10;72.80;;;;;;6153966;23;20092;-83
2021/01/20 10:00:46;;;;;;;61.92;38.13;;;5.50;71.10;;;;;;6156567;23;20017;-82
2021/01/20 10:03:12;;;;;;;63.60;37.28;;;5.90;69.10;;;;;;6184849;23;20008;-83
2021/01/20 10:05:38;;;;;;;63.42;38.47;;;6.00;67.20;;;;;;6157774;23;20001;-83
2021/01/20 10:08:06;;;;;;;63.28;36.83;;;6.10;66.40;;;;;;6184210;23;20001;-83
2021/01/20 10:10:44;;;;;;;62.20;39.28;;;5.90;65.90;;;;;;6184164;23;20080;-82
2021/01/20 10:13:10;;;;;;;55.50;35.47;;;6.10;66.50;;;;;;6158089;23;20001;-82
2021/01/20 10:15:38;;;;;;;63.75;36.72;;;6.20;65.10;;;;;;6157833;23;20086;-84
2021/01/20 10:18:04;;;;;;;55.83;35.78;;;6.50;65.00;;;;;;6184609;23;20060;-83
2021/01/20 10:20:30;;;;;;;66.30;37.10;;;6.30;63.30;;;;;;6156878;23;20005;-84
2021/01/20 10:23:24;;;;;;;67.88;38.50;;;5.80;64.80;;;;;;6184526;23;20084;-83
2021/01/20 10:25:53;;;;;;;60.13;36.30;;;6.00;64.70;;;;;;6157070;23;20060;-83
2021/01/20 10:28:19;;;;;;;63.17;39.22;;;6.60;63.80;;;;;;6183994;23;20029;-81
2021/01/20 10:30:44;;;;;;;66.28;38.20;;;7.40;63.10;;;;;;6184463;23;20001;-82
2021/01/20 10:33:19;;;;;;;57.72;35.85;;;7.60;61.10;;;;;;6184188;23;20029;-82
2021/01/20 10:36:35;;;;;;;64.70;33.63;;;7.00;61.30;;;;;;6161253;23;20029;-88
2021/01/20 10:39:00;;;;;;;61.33;37.17;;;8.50;70.10;;;;;;6158484;23;20067;-80
2021/01/20 10:41:38;;;;;;;57.60;36.70;;;9.20;58.60;;;;;;6183641;23;19996;-79
2021/01/20 10:44:05;;;;;;;65.22;39.45;;;8.30;57.20;;;;;;6158347;23;20016;-85
2021/01/20 10:46:31;;;;;;;62.63;38.55;;;7.70;58.10;;;;;;6183504;23;20039;-83
2021/01/20 10:48:59;;;;;;;61.47;39.55;;;7.40;60.00;;;;;;6157840;23;20435;-79
2021/01/20 10:51:27;;;;;;;64.63;39.47;;;7.30;59.90;;;;;;6156553;23;20005;-80
2021/01/20 10:53:53;;;;;;;60.20;36.75;;;7.60;59.50;;;;;;6184051;23;20012;-80
2021/01/20 10:56:19;;;;;;;68.15;38.70;;;7.80;59.00;;;;;;6155821;23;20001;-81
2021/01/20 10:58:45;;;;;;;56.70;35.85;;;8.20;58.70;;;;;;6184206;23;20012;-79
2021/01/20 11:01:11;;;;;;;64.25;37.05;;;8.20;58.00;;;;;;6183832;23;20001;-80
2021/01/20 11:03:40;;;;;;;65.57;37.40;;;8.10;57.30;;;;;;6184256;23;20004;-82
2021/01/20 11:06:06;;;;;;;55.38;35.17;;;7.80;57.90;;;;;;6184370;23;20331;-81
2021/01/20 11:08:38;;;;;;;56.58;36.00;;;7.60;58.00;;;;;;6183753;23;20009;-82
2021/01/20 11:11:18;;;;;;;51.53;33.80;;;7.90;58.30;;;;;;6156976;23;20009;-80
2021/01/20 11:13:47;;;;;;;53.80;33.45;;;8.10;57.60;;;;;;6157777;23;20012;-81
2021/01/20 11:16:13;;;;;;;52.42;33.20;;;8.00;57.00;;;;;;6183511;23;20008;-82
2021/01/20 11:18:55;;;;;;;;;;;;;;;;;;;;;
2021/01/20 11:21:31;;;;;;;56.13;34.20;;;8.50;56.40;;;;;;6183316;23;20089;-82
2021/01/20 11:23:57;;;;;;;53.53;34.50;;;8.00;55.90;;;;;;6157791;23;20013;-82
2021/01/20 11:26:22;;;;;;;57.25;34.83;;;8.10;56.50;;;;;;6156684;23;20391;-81
2021/01/20 11:29:04;;;;;;;50.58;33.33;;;8.30;56.50;;;;;;6183441;23;20013;-83
2021/01/20 11:31:31;;;;;;;49.42;32.60;;;8.70;55.90;;;;;;6157990;23;20010;-84
2021/01/20 11:33:57;;;;;;;53.80;32.67;;;8.90;55.30;;;;;;6184205;23;20076;-82
2021/01/20 11:36:23;;;;;;;47.55;30.85;;;8.40;55.30;;;;;;6156799;23;20032;-81
2021/01/20 11:38:55;;;;;;;44.95;28.83;;;8.30;55.60;;;;;;6158230;23;20017;-86
2021/01/20 11:41:21;;;;;;;45.63;28.00;;;8.60;54.90;;;;;;6184503;23;20024;-81
2021/01/20 11:43:47;;;;;;;45.42;28.67;;;8.30;55.00;;;;;;6184900;23;20013;-82
2021/01/20 11:46:14;;;;;;;42.92;28.83;;;8.40;55.00;;;;;;6157178;23;20039;-85
2021/01/20 11:48:40;;;;;;;43.65;29.27;;;8.50;54.90;;;;;;6185208;23;20027;-83
2021/01/20 11:51:06;;;;;;;40.88;26.55;;;8.80;54.40;;;;;;6184773;23;20331;-85
2021/01/20 11:53:32;;;;;;;42.63;26.20;;;9.00;53.90;;;;;;6183535;23;20001;-82
2021/01/20 11:55:58;;;;;;;39.70;24.25;;;9.00;53.70;;;;;;6156529;23;20008;-83
2021/01/20 11:58:23;;;;;;;42.40;26.25;;;9.00;53.50;;;;;;6155567;23;20013;-81
2021/01/20 12:00:49;;;;;;;38.42;24.45;;;9.30;53.20;;;;;;6155320;23;20501;-82
2021/01/20 12:03:15;;;;;;;39.13;24.45;;;9.20;53.00;;;;;;6157735;23;20009;-82
2021/01/20 12:05:42;;;;;;;39.50;24.85;;;9.10;53.60;;;;;;6184078;23;20104;-81
2021/01/20 12:08:08;;;;;;;37.90;24.80;;;9.10;53.20;;;;;;6184210;23;20001;-82
2021/01/20 12:10:34;;;;;;;35.50;22.73;;;9.70;53.10;;;;;;6158855;23;20005;-82
2021/01/20 12:12:59;;;;;;;30.88;21.35;;;9.60;52.50;;;;;;6160441;23;20076;-83
2021/01/20 12:15:25;;;;;;;29.02;18.58;;;10.00;52.00;;;;;;6185900;23;20331;-80
2021/01/20 12:17:51;;;;;;;27.08;18.50;;;9.60;50.80;;;;;;6155016;23;20009;-80
2021/01/20 12:20:29;;;;;;;27.13;17.45;;;10.10;51.00;;;;;;6154829;23;20020;-80
2021/01/20 12:22:55;;;;;;;29.10;20.25;;;10.30;50.30;;;;;;6172480;23;20005;-82
2021/01/20 12:25:20;;;;;;;32.92;21.65;;;10.10;50.60;;;;;;6186195;23;20001;-82
2021/01/20 12:27:46;;;;;;;30.92;20.23;;;9.70;51.90;;;;;;6181361;23;20001;-80
2021/01/20 12:30:15;;;;;;;32.85;21.13;;;10.00;52.30;;;;;;6183067;23;20040;-80
2021/01/20 12:32:41;;;;;;;33.05;20.35;;;10.00;52.00;;;;;;6184751;23;20031;-82
2021/01/20 12:35:07;;;;;;;29.55;19.92;;;9.90;51.50;;;;;;6183987;23;20330;-81
2021/01/20 12:37:32;;;;;;;28.05;19.15;;;9.80;51.40;;;;;;6157701;23;20016;-81
2021/01/20 12:40:04;;;;;;;28.58;18.75;;;9.50;51.40;;;;;;6157472;23;20343;-82
2021/01/20 12:42:29;;;;;;;28.40;17.65;;;9.50;51.50;;;;;;6176791;23;20882;-81
2021/01/20 12:44:55;;;;;;;27.25;17.75;;;9.90;50.50;;;;;;6180998;23;20478;-82
2021/01/20 12:47:22;;;;;;;24.50;15.95;;;9.90;50.30;;;;;;6184043;23;20486;-81
2021/01/20 12:49:48;;;;;;;26.38;16.13;;;10.20;49.70;;;;;;6159622;23;20458;-82
2021/01/20 12:52:14;;;;;;;28.05;15.98;;;10.50;48.90;;;;;;6158963;23;20001;-82
2021/01/20 12:54:51;;;;;;;24.83;17.40;;;10.60;48.70;;;;;;6185320;23;20044;-83
2021/01/20 12:57:17;;;;;;;23.38;16.13;;;10.60;49.00;;;;;;6158268;23;20331;-83
2021/01/20 12:59:43;;;;;;;25.10;16.48;;;10.80;48.30;;;;;;6158500;23;20443;-87
2021/01/20 13:02:09;;;;;;;25.90;17.20;;;10.40;48.90;;;;;;6158223;23;20012;-85
2021/01/20 13:04:34;;;;;;;25.95;17.85;;;10.60;48.40;;;;;;6159347;23;20672;-86